sensor_id;sensor_type;location;lat;lon;timestamp;P1;durP1;ratioP1;P2;durP2;ratioP2
76196;SDS011;64974;53.144;17.962;2022-11-20T00:01:12;31.70;;;12.73;;
76196;SDS011;64974;53.144;17.962;2022-11-20T00:03:39;33.33;;;13.82;;
76196;SDS011;64974;53.144;17.962;2022-11-20T00:06:06;33.17;;;14.40;;
76196;SDS011;64974;53.144;17.962;2022-11-20T00:08:33;38.13;;;14.15;;
76196;SDS011;64974;53.144;17.962;2022-11-20T00:11:02;34.20;;;13.88;;
76196;SDS011;64974;53.144;17.962;2022-11-20T00:13:31;38.97;;;15.18;;
76196;SDS011;64974;53.144;17.962;2022-11-20T00:15:58;38.13;;;14.07;;
76196;SDS011;64974;53.144;17.962;2022-11-20T00:18:24;32.63;;;14.23;;
76196;SDS011;64974;53.144;17.962;2022-11-20T00:20:50;34.13;;;13.63;;
76196;SDS011;64974;53.144;17.962;2022-11-20T00:23:15;32.93;;;13.07;;
76196;SDS011;64974;53.144;17.962;2022-11-20T00:25:41;32.38;;;13.23;;
76196;SDS011;64974;53.144;17.962;2022-11-20T00:28:06;30.77;;;12.90;;
76196;SDS011;64974;53.144;17.962;2022-11-20T00:30:31;31.87;;;13.43;;
76196;SDS011;64974;53.144;17.962;2022-11-20T00:32:56;33.70;;;13.27;;
76196;SDS011;64974;53.144;17.962;2022-11-20T00:35:22;35.10;;;13.77;;
76196;SDS011;64974;53.144;17.962;2022-11-20T00:37:48;29.05;;;13.10;;
76196;SDS011;64974;53.144;17.962;2022-11-20T00:40:13;29.77;;;14.13;;
76196;SDS011;64974;53.144;17.962;2022-11-20T00:42:38;33.53;;;15.52;;
76196;SDS011;64974;53.144;17.962;2022-11-20T00:45:04;30.85;;;12.25;;
76196;SDS011;64974;53.144;17.962;2022-11-20T00:47:30;31.77;;;13.20;;
76196;SDS011;64974;53.144;17.962;2022-11-20T00:49:55;30.47;;;13.27;;
76196;SDS011;64974;53.144;17.962;2022-11-20T00:52:21;28.07;;;11.83;;
76196;SDS011;64974;53.144;17.962;2022-11-20T00:54:46;30.25;;;13.45;;
76196;SDS011;64974;53.144;17.962;2022-11-20T00:57:11;28.90;;;13.77;;
76196;SDS011;64974;53.144;17.962;2022-11-20T00:59:36;30.17;;;12.80;;
76196;SDS011;64974;53.144;17.962;2022-11-20T01:02:02;29.20;;;13.10;;
76196;SDS011;64974;53.144;17.962;2022-11-20T01:04:27;32.55;;;12.48;;
76196;SDS011;64974;53.144;17.962;2022-11-20T01:06:52;28.75;;;12.25;;
76196;SDS011;64974;53.144;17.962;2022-11-20T01:09:18;25.80;;;11.80;;
76196;SDS011;64974;53.144;17.962;2022-11-20T01:11:43;32.63;;;13.57;;
76196;SDS011;64974;53.144;17.962;2022-11-20T01:14:11;24.38;;;10.77;;
76196;SDS011;64974;53.144;17.962;2022-11-20T01:16:39;28.73;;;12.27;;
76196;SDS011;64974;53.144;17.962;2022-11-20T01:19:07;30.60;;;12.73;;
76196;SDS011;64974;53.144;17.962;2022-11-20T01:21:36;26.45;;;11.75;;
76196;SDS011;64974;53.144;17.962;2022-11-20T01:24:04;27.98;;;12.85;;
76196;SDS011;64974;53.144;17.962;2022-11-20T01:28:56;25.05;;;11.05;;
76196;SDS011;64974;53.144;17.962;2022-11-20T01:31:29;28.40;;;11.00;;
76196;SDS011;64974;53.144;17.962;2022-11-20T01:34:00;30.20;;;11.80;;
76196;SDS011;64974;53.144;17.962;2022-11-20T01:36:30;25.45;;;11.07;;
76196;SDS011;64974;53.144;17.962;2022-11-20T01:38:58;25.90;;;10.60;;
76196;SDS011;64974;53.144;17.962;2022-11-20T01:41:25;27.00;;;11.63;;
76196;SDS011;64974;53.144;17.962;2022-11-20T01:44:10;26.63;;;11.02;;
76196;SDS011;64974;53.144;17.962;2022-11-20T01:46:38;28.90;;;11.23;;
76196;SDS011;64974;53.144;17.962;2022-11-20T01:51:35;23.48;;;10.48;;
76196;SDS011;64974;53.144;17.962;2022-11-20T01:54:06;26.75;;;10.65;;
76196;SDS011;64974;53.144;17.962;2022-11-20T01:56:36;23.90;;;10.80;;
76196;SDS011;64974;53.144;17.962;2022-11-20T01:59:04;23.88;;;10.18;;
76196;SDS011;64974;53.144;17.962;2022-11-20T02:01:31;25.65;;;10.77;;
76196;SDS011;64974;53.144;17.962;2022-11-20T02:03:56;22.75;;;10.35;;
76196;SDS011;64974;53.144;17.962;2022-11-20T02:06:29;21.08;;;9.45;;
76196;SDS011;64974;53.144;17.962;2022-11-20T02:08:56;23.00;;;10.55;;
76196;SDS011;64974;53.144;17.962;2022-11-20T02:11:22;24.83;;;10.52;;
76196;SDS011;64974;53.144;17.962;2022-11-20T02:13:47;22.45;;;10.35;;
76196;SDS011;64974;53.144;17.962;2022-11-20T02:16:21;18.92;;;9.10;;
76196;SDS011;64974;53.144;17.962;2022-11-20T02:18:47;22.95;;;9.20;;
76196;SDS011;64974;53.144;17.962;2022-11-20T02:21:14;18.80;;;10.23;;
76196;SDS011;64974;53.144;17.962;2022-11-20T02:26:41;18.83;;;8.77;;
76196;SDS011;64974;53.144;17.962;2022-11-20T02:29:12;20.85;;;9.18;;
76196;SDS011;64974;53.144;17.962;2022-11-20T02:34:05;22.98;;;9.32;;
76196;SDS011;64974;53.144;17.962;2022-11-20T02:36:31;18.85;;;8.80;;
76196;SDS011;64974;53.144;17.962;2022-11-20T02:38:57;19.38;;;8.50;;
76196;SDS011;64974;53.144;17.962;2022-11-20T02:41:30;20.60;;;8.90;;
76196;SDS011;64974;53.144;17.962;2022-11-20T02:43:56;16.88;;;8.40;;
76196;SDS011;64974;53.144;17.962;2022-11-20T02:46:21;19.10;;;8.97;;
76196;SDS011;64974;53.144;17.962;2022-11-20T02:48:47;24.40;;;9.07;;
76196;SDS011;64974;53.144;17.962;2022-11-20T02:51:12;20.80;;;8.80;;
76196;SDS011;64974;53.144;17.962;2022-11-20T02:53:37;19.93;;;9.53;;
76196;SDS011;64974;53.144;17.962;2022-11-20T02:56:03;23.30;;;9.53;;
76196;SDS011;64974;53.144;17.962;2022-11-20T02:58:28;21.58;;;9.10;;
76196;SDS011;64974;53.144;17.962;2022-11-20T03:00:54;23.83;;;10.23;;
76196;SDS011;64974;53.144;17.962;2022-11-20T03:03:19;18.10;;;9.67;;
76196;SDS011;64974;53.144;17.962;2022-11-20T03:05:45;18.92;;;8.68;;
76196;SDS011;64974;53.144;17.962;2022-11-20T03:08:10;19.17;;;9.07;;
76196;SDS011;64974;53.144;17.962;2022-11-20T03:10:35;22.37;;;9.37;;
76196;SDS011;64974;53.144;17.962;2022-11-20T03:13:00;17.10;;;9.23;;
76196;SDS011;64974;53.144;17.962;2022-11-20T03:15:26;19.23;;;8.50;;
76196;SDS011;64974;53.144;17.962;2022-11-20T03:17:54;19.73;;;9.17;;
76196;SDS011;64974;53.144;17.962;2022-11-20T03:20:20;21.75;;;9.85;;
76196;SDS011;64974;53.144;17.962;2022-11-20T03:22:45;19.85;;;8.68;;
76196;SDS011;64974;53.144;17.962;2022-11-20T03:25:11;19.65;;;8.68;;
76196;SDS011;64974;53.144;17.962;2022-11-20T03:27:36;19.33;;;9.05;;
76196;SDS011;64974;53.144;17.962;2022-11-20T03:30:01;18.47;;;8.70;;
76196;SDS011;64974;53.144;17.962;2022-11-20T03:32:27;17.60;;;8.70;;
76196;SDS011;64974;53.144;17.962;2022-11-20T03:34:53;20.73;;;8.60;;
76196;SDS011;64974;53.144;17.962;2022-11-20T03:37:18;22.67;;;9.38;;
76196;SDS011;64974;53.144;17.962;2022-11-20T03:39:43;25.10;;;9.20;;
76196;SDS011;64974;53.144;17.962;2022-11-20T03:42:09;19.85;;;9.20;;
76196;SDS011;64974;53.144;17.962;2022-11-20T03:44:54;22.13;;;9.73;;
76196;SDS011;64974;53.144;17.962;2022-11-20T03:47:20;25.55;;;10.60;;
76196;SDS011;64974;53.144;17.962;2022-11-20T03:49:45;20.05;;;9.30;;
76196;SDS011;64974;53.144;17.962;2022-11-20T03:52:11;20.10;;;9.20;;
76196;SDS011;64974;53.144;17.962;2022-11-20T03:54:36;24.40;;;10.35;;
76196;SDS011;64974;53.144;17.962;2022-11-20T03:57:01;20.13;;;10.33;;
76196;SDS011;64974;53.144;17.962;2022-11-20T03:59:27;20.13;;;8.93;;
76196;SDS011;64974;53.144;17.962;2022-11-20T04:01:52;20.93;;;9.47;;
76196;SDS011;64974;53.144;17.962;2022-11-20T04:04:17;19.87;;;9.17;;
76196;SDS011;64974;53.144;17.962;2022-11-20T04:06:42;20.73;;;8.50;;
76196;SDS011;64974;53.144;17.962;2022-11-20T04:09:08;19.73;;;9.80;;
76196;SDS011;64974;53.144;17.962;2022-11-20T04:11:36;25.03;;;10.77;;
76196;SDS011;64974;53.144;17.962;2022-11-20T04:14:03;20.48;;;9.85;;
76196;SDS011;64974;53.144;17.962;2022-11-20T04:16:33;24.02;;;9.98;;
76196;SDS011;64974;53.144;17.962;2022-11-20T04:19:00;19.67;;;8.52;;
76196;SDS011;64974;53.144;17.962;2022-11-20T04:21:27;21.33;;;8.52;;
76196;SDS011;64974;53.144;17.962;2022-11-20T04:23:53;20.27;;;9.23;;
76196;SDS011;64974;53.144;17.962;2022-11-20T04:26:19;17.67;;;9.13;;
76196;SDS011;64974;53.144;17.962;2022-11-20T04:28:46;19.92;;;9.63;;
76196;SDS011;64974;53.144;17.962;2022-11-20T04:31:12;21.10;;;9.98;;
76196;SDS011;64974;53.144;17.962;2022-11-20T04:33:42;23.38;;;9.93;;
76196;SDS011;64974;53.144;17.962;2022-11-20T04:36:10;20.73;;;8.57;;
76196;SDS011;64974;53.144;17.962;2022-11-20T04:38:36;24.65;;;10.60;;
76196;SDS011;64974;53.144;17.962;2022-11-20T04:41:05;24.02;;;10.40;;
76196;SDS011;64974;53.144;17.962;2022-11-20T04:43:31;20.75;;;9.40;;
76196;SDS011;64974;53.144;17.962;2022-11-20T04:45:57;21.52;;;9.77;;
76196;SDS011;64974;53.144;17.962;2022-11-20T04:48:23;21.98;;;9.52;;
76196;SDS011;64974;53.144;17.962;2022-11-20T04:50:50;20.60;;;9.48;;
76196;SDS011;64974;53.144;17.962;2022-11-20T04:53:15;20.50;;;9.23;;
76196;SDS011;64974;53.144;17.962;2022-11-20T04:55:41;22.17;;;10.23;;
76196;SDS011;64974;53.144;17.962;2022-11-20T04:58:06;23.20;;;10.38;;
76196;SDS011;64974;53.144;17.962;2022-11-20T05:00:32;26.47;;;10.43;;
76196;SDS011;64974;53.144;17.962;2022-11-20T05:02:57;24.80;;;11.60;;
76196;SDS011;64974;53.144;17.962;2022-11-20T05:05:22;25.73;;;10.43;;
76196;SDS011;64974;53.144;17.962;2022-11-20T05:07:48;23.35;;;11.30;;
76196;SDS011;64974;53.144;17.962;2022-11-20T05:10:13;22.48;;;10.95;;
76196;SDS011;64974;53.144;17.962;2022-11-20T05:12:39;24.73;;;12.02;;
76196;SDS011;64974;53.144;17.962;2022-11-20T05:15:04;29.08;;;11.98;;
76196;SDS011;64974;53.144;17.962;2022-11-20T05:17:30;20.92;;;11.27;;
76196;SDS011;64974;53.144;17.962;2022-11-20T05:19:55;21.48;;;10.50;;
76196;SDS011;64974;53.144;17.962;2022-11-20T05:22:21;24.30;;;10.52;;
76196;SDS011;64974;53.144;17.962;2022-11-20T05:24:46;27.23;;;10.57;;
76196;SDS011;64974;53.144;17.962;2022-11-20T05:27:12;26.20;;;11.30;;
76196;SDS011;64974;53.144;17.962;2022-11-20T05:29:37;27.38;;;12.55;;
76196;SDS011;64974;53.144;17.962;2022-11-20T05:32:02;25.83;;;11.93;;
76196;SDS011;64974;53.144;17.962;2022-11-20T05:34:28;30.98;;;12.15;;
76196;SDS011;64974;53.144;17.962;2022-11-20T05:36:53;30.77;;;12.55;;
76196;SDS011;64974;53.144;17.962;2022-11-20T05:39:18;25.83;;;12.00;;
76196;SDS011;64974;53.144;17.962;2022-11-20T05:41:44;27.40;;;12.47;;
76196;SDS011;64974;53.144;17.962;2022-11-20T05:44:10;27.30;;;11.37;;
76196;SDS011;64974;53.144;17.962;2022-11-20T05:46:35;27.50;;;12.82;;
76196;SDS011;64974;53.144;17.962;2022-11-20T05:49:01;26.60;;;12.23;;
76196;SDS011;64974;53.144;17.962;2022-11-20T05:51:26;29.98;;;13.68;;
76196;SDS011;64974;53.144;17.962;2022-11-20T05:53:52;32.15;;;13.13;;
76196;SDS011;64974;53.144;17.962;2022-11-20T05:56:18;28.02;;;12.55;;
76196;SDS011;64974;53.144;17.962;2022-11-20T05:58:46;30.40;;;12.77;;
76196;SDS011;64974;53.144;17.962;2022-11-20T06:01:16;28.45;;;12.88;;
76196;SDS011;64974;53.144;17.962;2022-11-20T06:03:42;28.20;;;12.75;;
76196;SDS011;64974;53.144;17.962;2022-11-20T06:06:10;22.55;;;11.85;;
76196;SDS011;64974;53.144;17.962;2022-11-20T06:08:37;22.85;;;10.57;;
76196;SDS011;64974;53.144;17.962;2022-11-20T06:11:03;26.80;;;11.30;;
76196;SDS011;64974;53.144;17.962;2022-11-20T06:13:30;22.85;;;11.68;;
76196;SDS011;64974;53.144;17.962;2022-11-20T06:15:55;31.53;;;14.67;;
76196;SDS011;64974;53.144;17.962;2022-11-20T06:18:20;26.63;;;11.07;;
76196;SDS011;64974;53.144;17.962;2022-11-20T06:20:46;26.35;;;11.88;;
76196;SDS011;64974;53.144;17.962;2022-11-20T06:23:11;25.88;;;11.20;;
76196;SDS011;64974;53.144;17.962;2022-11-20T06:25:40;25.73;;;11.90;;
76196;SDS011;64974;53.144;17.962;2022-11-20T06:28:06;23.45;;;10.93;;
76196;SDS011;64974;53.144;17.962;2022-11-20T06:30:32;27.73;;;11.57;;
76196;SDS011;64974;53.144;17.962;2022-11-20T06:32:57;25.03;;;11.43;;
76196;SDS011;64974;53.144;17.962;2022-11-20T06:35:22;28.57;;;12.33;;
76196;SDS011;64974;53.144;17.962;2022-11-20T06:37:48;26.92;;;12.40;;
76196;SDS011;64974;53.144;17.962;2022-11-20T06:40:13;25.70;;;10.47;;
76196;SDS011;64974;53.144;17.962;2022-11-20T06:42:38;26.60;;;10.63;;
76196;SDS011;64974;53.144;17.962;2022-11-20T06:45:04;23.48;;;11.32;;
76196;SDS011;64974;53.144;17.962;2022-11-20T06:47:29;24.77;;;11.77;;
76196;SDS011;64974;53.144;17.962;2022-11-20T06:49:55;27.27;;;11.13;;
76196;SDS011;64974;53.144;17.962;2022-11-20T06:52:20;34.05;;;12.93;;
76196;SDS011;64974;53.144;17.962;2022-11-20T06:54:45;29.08;;;12.55;;
76196;SDS011;64974;53.144;17.962;2022-11-20T06:57:11;26.00;;;11.73;;
76196;SDS011;64974;53.144;17.962;2022-11-20T06:59:36;25.53;;;10.53;;
76196;SDS011;64974;53.144;17.962;2022-11-20T07:02:01;27.20;;;12.20;;
76196;SDS011;64974;53.144;17.962;2022-11-20T07:04:27;24.35;;;11.77;;
76196;SDS011;64974;53.144;17.962;2022-11-20T07:06:52;27.67;;;11.20;;
76196;SDS011;64974;53.144;17.962;2022-11-20T07:09:17;25.33;;;12.00;;
76196;SDS011;64974;53.144;17.962;2022-11-20T07:11:43;28.38;;;12.63;;
76196;SDS011;64974;53.144;17.962;2022-11-20T07:14:08;28.95;;;12.63;;
76196;SDS011;64974;53.144;17.962;2022-11-20T07:16:33;26.60;;;11.07;;
76196;SDS011;64974;53.144;17.962;2022-11-20T07:18:59;27.67;;;12.82;;
76196;SDS011;64974;53.144;17.962;2022-11-20T07:21:24;30.48;;;12.70;;
76196;SDS011;64974;53.144;17.962;2022-11-20T07:23:49;30.30;;;11.83;;
76196;SDS011;64974;53.144;17.962;2022-11-20T07:26:15;30.87;;;15.17;;
76196;SDS011;64974;53.144;17.962;2022-11-20T07:28:43;37.10;;;14.98;;
76196;SDS011;64974;53.144;17.962;2022-11-20T07:31:09;31.67;;;13.48;;
76196;SDS011;64974;53.144;17.962;2022-11-20T07:33:34;30.65;;;13.68;;
76196;SDS011;64974;53.144;17.962;2022-11-20T07:36:00;30.40;;;14.27;;
76196;SDS011;64974;53.144;17.962;2022-11-20T07:38:26;27.33;;;13.50;;
76196;SDS011;64974;53.144;17.962;2022-11-20T07:40:57;27.13;;;13.00;;
76196;SDS011;64974;53.144;17.962;2022-11-20T07:43:23;36.20;;;14.57;;
76196;SDS011;64974;53.144;17.962;2022-11-20T07:45:50;27.08;;;13.48;;
76196;SDS011;64974;53.144;17.962;2022-11-20T07:48:15;31.17;;;12.73;;
76196;SDS011;64974;53.144;17.962;2022-11-20T07:50:40;30.00;;;12.82;;
76196;SDS011;64974;53.144;17.962;2022-11-20T07:53:06;31.00;;;14.63;;
76196;SDS011;64974;53.144;17.962;2022-11-20T07:55:32;31.38;;;14.57;;
76196;SDS011;64974;53.144;17.962;2022-11-20T07:57:57;32.22;;;13.15;;
76196;SDS011;64974;53.144;17.962;2022-11-20T08:00:23;40.75;;;15.07;;
76196;SDS011;64974;53.144;17.962;2022-11-20T08:02:49;32.95;;;15.75;;
76196;SDS011;64974;53.144;17.962;2022-11-20T08:05:15;31.75;;;13.75;;
76196;SDS011;64974;53.144;17.962;2022-11-20T08:07:41;32.10;;;14.90;;
76196;SDS011;64974;53.144;17.962;2022-11-20T08:10:08;42.00;;;18.65;;
76196;SDS011;64974;53.144;17.962;2022-11-20T08:12:35;38.42;;;16.00;;
76196;SDS011;64974;53.144;17.962;2022-11-20T08:15:19;34.55;;;15.02;;
76196;SDS011;64974;53.144;17.962;2022-11-20T08:17:45;30.38;;;13.60;;
76196;SDS011;64974;53.144;17.962;2022-11-20T08:20:10;35.63;;;14.23;;
76196;SDS011;64974;53.144;17.962;2022-11-20T08:22:35;31.05;;;14.88;;
76196;SDS011;64974;53.144;17.962;2022-11-20T08:25:01;39.67;;;16.73;;
76196;SDS011;64974;53.144;17.962;2022-11-20T08:27:26;33.83;;;14.75;;
76196;SDS011;64974;53.144;17.962;2022-11-20T08:29:52;29.25;;;13.85;;
76196;SDS011;64974;53.144;17.962;2022-11-20T08:32:17;39.67;;;15.88;;
76196;SDS011;64974;53.144;17.962;2022-11-20T08:34:42;37.67;;;16.48;;
76196;SDS011;64974;53.144;17.962;2022-11-20T08:37:08;37.77;;;16.77;;
76196;SDS011;64974;53.144;17.962;2022-11-20T08:39:33;37.67;;;14.97;;
76196;SDS011;64974;53.144;17.962;2022-11-20T08:41:58;34.85;;;15.20;;
76196;SDS011;64974;53.144;17.962;2022-11-20T08:44:24;64.55;;;23.50;;
76196;SDS011;64974;53.144;17.962;2022-11-20T08:46:49;44.60;;;16.85;;
76196;SDS011;64974;53.144;17.962;2022-11-20T08:49:15;34.88;;;15.18;;
76196;SDS011;64974;53.144;17.962;2022-11-20T08:51:41;38.88;;;16.27;;
76196;SDS011;64974;53.144;17.962;2022-11-20T08:54:07;40.65;;;15.80;;
76196;SDS011;64974;53.144;17.962;2022-11-20T08:56:33;35.63;;;15.25;;
76196;SDS011;64974;53.144;17.962;2022-11-20T09:01:24;37.53;;;15.50;;
76196;SDS011;64974;53.144;17.962;2022-11-20T09:03:50;35.72;;;16.13;;
76196;SDS011;64974;53.144;17.962;2022-11-20T09:06:15;39.47;;;16.50;;
76196;SDS011;64974;53.144;17.962;2022-11-20T09:08:41;30.83;;;15.10;;
76196;SDS011;64974;53.144;17.962;2022-11-20T09:11:07;31.27;;;14.48;;
76196;SDS011;64974;53.144;17.962;2022-11-20T09:13:33;37.17;;;16.85;;
76196;SDS011;64974;53.144;17.962;2022-11-20T09:18:26;38.45;;;15.95;;
76196;SDS011;64974;53.144;17.962;2022-11-20T09:20:55;38.65;;;15.18;;
76196;SDS011;64974;53.144;17.962;2022-11-20T09:23:21;36.70;;;14.48;;
76196;SDS011;64974;53.144;17.962;2022-11-20T09:25:46;40.70;;;16.67;;
76196;SDS011;64974;53.144;17.962;2022-11-20T09:28:12;39.23;;;17.20;;
76196;SDS011;64974;53.144;17.962;2022-11-20T09:30:38;37.20;;;17.20;;
76196;SDS011;64974;53.144;17.962;2022-11-20T09:33:04;40.47;;;16.02;;
76196;SDS011;64974;53.144;17.962;2022-11-20T09:35:30;35.83;;;15.73;;
76196;SDS011;64974;53.144;17.962;2022-11-20T09:37:55;39.40;;;16.13;;
76196;SDS011;64974;53.144;17.962;2022-11-20T09:43:07;29.08;;;14.30;;
76196;SDS011;64974;53.144;17.962;2022-11-20T09:45:37;33.22;;;15.05;;
76196;SDS011;64974;53.144;17.962;2022-11-20T09:48:20;33.75;;;15.80;;
76196;SDS011;64974;53.144;17.962;2022-11-20T09:55:56;36.83;;;14.80;;
76196;SDS011;64974;53.144;17.962;2022-11-20T10:00:55;36.45;;;15.30;;
76196;SDS011;64974;53.144;17.962;2022-11-20T10:03:26;36.03;;;15.80;;
76196;SDS011;64974;53.144;17.962;2022-11-20T10:05:59;31.85;;;15.88;;
76196;SDS011;64974;53.144;17.962;2022-11-20T10:08:33;35.35;;;15.73;;
76196;SDS011;64974;53.144;17.962;2022-11-20T10:11:11;39.50;;;19.75;;
76196;SDS011;64974;53.144;17.962;2022-11-20T10:25:13;41.30;;;18.08;;
76196;SDS011;64974;53.144;17.962;2022-11-20T10:30:41;45.42;;;17.15;;
76196;SDS011;64974;53.144;17.962;2022-11-20T10:33:27;42.50;;;17.58;;
76196;SDS011;64974;53.144;17.962;2022-11-20T10:41:30;47.50;;;18.90;;
76196;SDS011;64974;53.144;17.962;2022-11-20T10:44:17;49.17;;;21.63;;
76196;SDS011;64974;53.144;17.962;2022-11-20T10:47:04;45.72;;;19.45;;
76196;SDS011;64974;53.144;17.962;2022-11-20T10:49:30;49.60;;;20.27;;
76196;SDS011;64974;53.144;17.962;2022-11-20T11:00:06;42.58;;;17.55;;
76196;SDS011;64974;53.144;17.962;2022-11-20T11:02:34;45.97;;;20.10;;
76196;SDS011;64974;53.144;17.962;2022-11-20T11:05:07;44.47;;;19.27;;
76196;SDS011;64974;53.144;17.962;2022-11-20T11:07:36;55.60;;;22.27;;
76196;SDS011;64974;53.144;17.962;2022-11-20T11:10:12;44.90;;;19.08;;
76196;SDS011;64974;53.144;17.962;2022-11-20T11:12:42;47.00;;;19.50;;
76196;SDS011;64974;53.144;17.962;2022-11-20T11:15:28;51.53;;;21.33;;
76196;SDS011;64974;53.144;17.962;2022-11-20T11:18:03;50.78;;;20.92;;
76196;SDS011;64974;53.144;17.962;2022-11-20T11:20:29;49.33;;;18.92;;
76196;SDS011;64974;53.144;17.962;2022-11-20T11:22:58;48.83;;;20.58;;
76196;SDS011;64974;53.144;17.962;2022-11-20T11:27:53;52.60;;;21.58;;
76196;SDS011;64974;53.144;17.962;2022-11-20T11:30:21;66.00;;;25.05;;
76196;SDS011;64974;53.144;17.962;2022-11-20T11:32:50;43.78;;;18.90;;
76196;SDS011;64974;53.144;17.962;2022-11-20T11:40:39;51.00;;;19.92;;
76196;SDS011;64974;53.144;17.962;2022-11-20T11:43:05;54.08;;;21.83;;
76196;SDS011;64974;53.144;17.962;2022-11-20T11:45:54;40.58;;;17.35;;
76196;SDS011;64974;53.144;17.962;2022-11-20T11:48:20;46.65;;;18.45;;
76196;SDS011;64974;53.144;17.962;2022-11-20T11:50:49;44.33;;;17.63;;
76196;SDS011;64974;53.144;17.962;2022-11-20T11:53:18;43.45;;;18.33;;
76196;SDS011;64974;53.144;17.962;2022-11-20T12:03:33;39.03;;;16.77;;
76196;SDS011;64974;53.144;17.962;2022-11-20T12:06:11;46.10;;;18.70;;
76196;SDS011;64974;53.144;17.962;2022-11-20T12:08:42;38.60;;;17.33;;
76196;SDS011;64974;53.144;17.962;2022-11-20T12:14:09;43.25;;;18.17;;
76196;SDS011;64974;53.144;17.962;2022-11-20T12:16:39;37.15;;;15.77;;
76196;SDS011;64974;53.144;17.962;2022-11-20T12:19:10;47.15;;;17.40;;
76196;SDS011;64974;53.144;17.962;2022-11-20T12:21:41;51.13;;;19.67;;
76196;SDS011;64974;53.144;17.962;2022-11-20T12:30:14;40.60;;;17.73;;
76196;SDS011;64974;53.144;17.962;2022-11-20T12:32:48;46.58;;;17.70;;
76196;SDS011;64974;53.144;17.962;2022-11-20T12:35:23;32.53;;;15.20;;
76196;SDS011;64974;53.144;17.962;2022-11-20T12:43:44;35.50;;;15.38;;
76196;SDS011;64974;53.144;17.962;2022-11-20T12:47:14;27.77;;;12.60;;
76196;SDS011;64974;53.144;17.962;2022-11-20T12:49:48;36.75;;;14.93;;
76196;SDS011;64974;53.144;17.962;2022-11-20T12:52:47;36.95;;;15.98;;
76196;SDS011;64974;53.144;17.962;2022-11-20T12:58:11;32.10;;;15.77;;
76196;SDS011;64974;53.144;17.962;2022-11-20T13:00:43;36.55;;;18.08;;
76196;SDS011;64974;53.144;17.962;2022-11-20T13:04:08;43.63;;;18.25;;
76196;SDS011;64974;53.144;17.962;2022-11-20T13:06:41;38.95;;;17.08;;
76196;SDS011;64974;53.144;17.962;2022-11-20T13:09:09;43.40;;;18.20;;
76196;SDS011;64974;53.144;17.962;2022-11-20T13:19:59;46.17;;;17.88;;
76196;SDS011;64974;53.144;17.962;2022-11-20T13:22:26;39.45;;;17.23;;
76196;SDS011;64974;53.144;17.962;2022-11-20T13:24:52;45.50;;;20.13;;
76196;SDS011;64974;53.144;17.962;2022-11-20T13:27:19;45.67;;;20.02;;
76196;SDS011;64974;53.144;17.962;2022-11-20T13:29:47;37.05;;;15.10;;
76196;SDS011;64974;53.144;17.962;2022-11-20T13:32:25;36.97;;;15.95;;
76196;SDS011;64974;53.144;17.962;2022-11-20T13:34:52;38.20;;;16.17;;
76196;SDS011;64974;53.144;17.962;2022-11-20T13:37:26;33.85;;;15.32;;
76196;SDS011;64974;53.144;17.962;2022-11-20T13:42:35;36.88;;;15.73;;
76196;SDS011;64974;53.144;17.962;2022-11-20T13:45:08;44.92;;;19.00;;
76196;SDS011;64974;53.144;17.962;2022-11-20T13:47:35;41.35;;;17.30;;
76196;SDS011;64974;53.144;17.962;2022-11-20T13:50:02;40.50;;;17.10;;
76196;SDS011;64974;53.144;17.962;2022-11-20T13:55:40;35.08;;;14.25;;
76196;SDS011;64974;53.144;17.962;2022-11-20T14:01:24;39.13;;;17.80;;
76196;SDS011;64974;53.144;17.962;2022-11-20T14:03:50;37.30;;;14.60;;
76196;SDS011;64974;53.144;17.962;2022-11-20T14:07:01;34.03;;;15.38;;
76196;SDS011;64974;53.144;17.962;2022-11-20T14:09:10;35.30;;;14.85;;
76196;SDS011;64974;53.144;17.962;2022-11-20T14:11:37;41.85;;;17.63;;
76196;SDS011;64974;53.144;17.962;2022-11-20T14:16:41;40.92;;;19.17;;
76196;SDS011;64974;53.144;17.962;2022-11-20T14:21:42;35.03;;;15.75;;
76196;SDS011;64974;53.144;17.962;2022-11-20T14:24:10;40.50;;;16.23;;
76196;SDS011;64974;53.144;17.962;2022-11-20T14:26:37;43.65;;;16.20;;
76196;SDS011;64974;53.144;17.962;2022-11-20T14:29:03;35.95;;;18.10;;
76196;SDS011;64974;53.144;17.962;2022-11-20T14:31:29;34.85;;;14.70;;
76196;SDS011;64974;53.144;17.962;2022-11-20T14:33:55;40.45;;;17.50;;
76196;SDS011;64974;53.144;17.962;2022-11-20T14:36:21;39.45;;;17.63;;
76196;SDS011;64974;53.144;17.962;2022-11-20T14:38:48;35.22;;;16.50;;
76196;SDS011;64974;53.144;17.962;2022-11-20T14:41:21;36.67;;;16.95;;
76196;SDS011;64974;53.144;17.962;2022-11-20T14:43:49;41.78;;;17.13;;
76196;SDS011;64974;53.144;17.962;2022-11-20T14:46:18;38.78;;;16.40;;
76196;SDS011;64974;53.144;17.962;2022-11-20T14:48:47;40.90;;;16.80;;
76196;SDS011;64974;53.144;17.962;2022-11-20T14:54:09;42.08;;;18.05;;
76196;SDS011;64974;53.144;17.962;2022-11-20T14:56:36;38.17;;;16.65;;
76196;SDS011;64974;53.144;17.962;2022-11-20T14:59:01;41.72;;;16.88;;
76196;SDS011;64974;53.144;17.962;2022-11-20T15:01:27;45.45;;;19.23;;
76196;SDS011;64974;53.144;17.962;2022-11-20T15:03:59;43.90;;;18.77;;
76196;SDS011;64974;53.144;17.962;2022-11-20T15:06:31;38.00;;;18.13;;
76196;SDS011;64974;53.144;17.962;2022-11-20T15:08:56;42.58;;;19.27;;
76196;SDS011;64974;53.144;17.962;2022-11-20T15:11:29;48.67;;;20.40;;
76196;SDS011;64974;53.144;17.962;2022-11-20T15:13:56;43.40;;;17.33;;
76196;SDS011;64974;53.144;17.962;2022-11-20T15:16:22;44.90;;;18.50;;
76196;SDS011;64974;53.144;17.962;2022-11-20T15:18:48;41.65;;;18.63;;
76196;SDS011;64974;53.144;17.962;2022-11-20T15:21:15;43.33;;;17.65;;
76196;SDS011;64974;53.144;17.962;2022-11-20T15:23:41;43.20;;;18.02;;
76196;SDS011;64974;53.144;17.962;2022-11-20T15:26:08;42.92;;;18.73;;
76196;SDS011;64974;53.144;17.962;2022-11-20T15:28:35;47.80;;;18.65;;
76196;SDS011;64974;53.144;17.962;2022-11-20T15:31:04;45.80;;;18.48;;
76196;SDS011;64974;53.144;17.962;2022-11-20T15:33:30;43.25;;;20.35;;
76196;SDS011;64974;53.144;17.962;2022-11-20T15:35:56;52.40;;;19.77;;
76196;SDS011;64974;53.144;17.962;2022-11-20T15:38:22;41.80;;;19.65;;
76196;SDS011;64974;53.144;17.962;2022-11-20T15:40:49;47.28;;;18.45;;
76196;SDS011;64974;53.144;17.962;2022-11-20T15:43:15;45.63;;;18.70;;
76196;SDS011;64974;53.144;17.962;2022-11-20T15:45:41;61.13;;;25.60;;
76196;SDS011;64974;53.144;17.962;2022-11-20T15:48:09;46.25;;;22.27;;
76196;SDS011;64974;53.144;17.962;2022-11-20T15:50:37;49.90;;;22.65;;
76196;SDS011;64974;53.144;17.962;2022-11-20T15:53:09;49.28;;;20.50;;
76196;SDS011;64974;53.144;17.962;2022-11-20T15:55:34;44.00;;;19.38;;
76196;SDS011;64974;53.144;17.962;2022-11-20T15:58:00;48.90;;;17.67;;
76196;SDS011;64974;53.144;17.962;2022-11-20T16:00:25;43.45;;;17.52;;
76196;SDS011;64974;53.144;17.962;2022-11-20T16:02:50;48.13;;;18.75;;
76196;SDS011;64974;53.144;17.962;2022-11-20T16:05:16;37.08;;;17.30;;
76196;SDS011;64974;53.144;17.962;2022-11-20T16:07:42;47.33;;;19.80;;